createdAt,value
2023-05-12T00:01:08.366Z,55.64
2023-05-12T00:03:35.362Z,55.86
2023-05-12T00:06:04.545Z,56.12
2023-05-12T00:08:31.627Z,56.50
2023-05-12T00:10:58.569Z,56.59
2023-05-12T00:13:25.377Z,56.99
2023-05-12T00:15:52.193Z,56.87
2023-05-12T00:18:19.076Z,57.14
2023-05-12T00:20:45.781Z,57.22
2023-05-12T00:23:12.512Z,57.21
2023-05-12T00:25:39.431Z,57.42
2023-05-12T00:28:06.256Z,57.64
2023-05-12T00:30:33.073Z,57.64
2023-05-12T00:32:59.814Z,58.08
2023-05-12T00:35:26.653Z,58.08
2023-05-12T00:37:53.482Z,58.39
2023-05-12T00:40:20.491Z,58.57
2023-05-12T00:42:47.412Z,58.82
2023-05-12T00:45:15.110Z,59.03
2023-05-12T00:47:42.162Z,59.35
2023-05-12T00:50:09.661Z,59.44
2023-05-12T00:52:36.749Z,59.58
2023-05-12T00:55:05.429Z,59.96
2023-05-12T00:57:33.987Z,60.08
2023-05-12T01:00:00.761Z,60.02
2023-05-12T01:02:27.566Z,60.24
2023-05-12T01:04:54.319Z,60.49
2023-05-12T01:07:22.918Z,60.62
2023-05-12T01:09:55.069Z,60.38
2023-05-12T01:12:22.132Z,60.89
2023-05-12T01:14:50.468Z,60.78
2023-05-12T01:17:20.836Z,61.01
2023-05-12T01:19:49.665Z,61.20
2023-05-12T01:22:17.508Z,61.30
2023-05-12T01:25:07.788Z,61.37
2023-05-12T01:27:34.947Z,61.43
2023-05-12T01:30:04.604Z,61.57
2023-05-12T01:32:31.470Z,61.72
2023-05-12T01:34:58.252Z,61.68
2023-05-12T01:37:27.071Z,61.81
2023-05-12T01:39:54.518Z,61.84
2023-05-12T01:42:21.793Z,61.88
2023-05-12T01:44:48.420Z,61.98
2023-05-12T01:47:16.202Z,62.17
2023-05-12T01:49:43.028Z,62.24
2023-05-12T01:52:09.815Z,62.37
2023-05-12T01:54:36.419Z,62.46
2023-05-12T01:57:03.172Z,62.60
2023-05-12T01:59:29.801Z,62.63
2023-05-12T02:01:56.511Z,62.96
2023-05-12T02:04:23.176Z,62.99
2023-05-12T02:06:50.086Z,63.23
2023-05-12T02:09:16.937Z,63.24
2023-05-12T02:11:43.609Z,63.38
2023-05-12T02:14:10.215Z,63.64
2023-05-12T02:16:37.094Z,63.80
2023-05-12T02:19:04.383Z,63.64
2023-05-12T02:21:31.502Z,63.77
2023-05-12T02:23:58.281Z,63.97
2023-05-12T02:26:25.040Z,64.16
2023-05-12T02:28:51.720Z,63.98
2023-05-12T02:31:18.418Z,64.07
2023-05-12T02:33:45.135Z,64.22
2023-05-12T02:36:11.809Z,64.37
2023-05-12T02:38:40.140Z,64.39
2023-05-12T02:41:07.754Z,64.51
2023-05-12T02:43:34.560Z,64.74
2023-05-12T02:46:01.680Z,64.88
2023-05-12T02:48:28.508Z,65.20
2023-05-12T02:50:55.240Z,64.96
2023-05-12T02:53:21.978Z,65.05
2023-05-12T02:55:49.145Z,65.45
2023-05-12T02:58:15.985Z,65.47
2023-05-12T03:00:42.650Z,65.55
2023-05-12T03:03:09.534Z,65.98
2023-05-12T03:05:36.425Z,66.07
2023-05-12T03:08:03.174Z,65.83
2023-05-12T03:10:31.131Z,65.92
2023-05-12T03:12:57.999Z,65.70
2023-05-12T03:15:24.773Z,65.67
2023-05-12T03:17:51.568Z,65.77
2023-05-12T03:20:18.497Z,65.82
2023-05-12T03:22:45.365Z,65.79
2023-05-12T03:25:12.617Z,66.43
2023-05-12T03:27:39.867Z,66.52
2023-05-12T03:30:07.331Z,66.76
2023-05-12T03:32:34.059Z,66.75
2023-05-12T03:35:00.837Z,66.30
2023-05-12T03:37:27.496Z,66.50
2023-05-12T03:39:56.320Z,66.21
2023-05-12T03:42:24.255Z,65.62
2023-05-12T03:44:52.226Z,64.58
2023-05-12T03:47:19.289Z,63.62
2023-05-12T03:49:46.006Z,62.21
2023-05-12T03:52:13.080Z,60.89
2023-05-12T03:54:39.958Z,60.10
2023-05-12T03:57:06.785Z,59.21
2023-05-12T03:59:33.549Z,58.15
2023-05-12T04:02:00.271Z,57.14
2023-05-12T04:04:26.966Z,56.28
2023-05-12T04:06:53.714Z,55.60
2023-05-12T04:09:21.534Z,54.95
2023-05-12T04:11:48.251Z,54.15
2023-05-12T04:14:15.327Z,54.13
2023-05-12T04:16:42.141Z,52.95
2023-05-12T04:19:08.964Z,52.70
2023-05-12T04:21:35.922Z,52.15
2023-05-12T04:24:02.568Z,51.33
2023-05-12T04:26:30.513Z,50.42
2023-05-12T04:28:57.172Z,49.69
2023-05-12T04:31:23.911Z,49.88
2023-05-12T04:33:52.022Z,49.15
2023-05-12T04:36:18.827Z,48.27
2023-05-12T04:38:45.987Z,47.49
2023-05-12T04:41:12.882Z,48.07
2023-05-12T04:46:09.446Z,46.70
2023-05-12T04:48:42.176Z,46.82
2023-05-12T04:51:09.196Z,46.43
2023-05-12T04:53:36.499Z,46.84
2023-05-12T04:56:03.765Z,47.18
2023-05-12T04:58:30.732Z,47.27
2023-05-12T05:00:57.440Z,46.62
2023-05-12T05:03:24.488Z,46.72
2023-05-12T05:05:51.282Z,46.65
2023-05-12T05:08:18.626Z,46.72
2023-05-12T05:10:45.438Z,47.12
2023-05-12T05:13:12.279Z,47.85
2023-05-12T05:15:39.040Z,47.06
2023-05-12T05:18:06.168Z,46.49
2023-05-12T05:20:34.692Z,46.51
2023-05-12T05:23:01.538Z,45.94
2023-05-12T05:25:28.412Z,45.18
2023-05-12T05:27:55.918Z,45.49
2023-05-12T05:30:22.636Z,46.05
2023-05-12T05:32:49.420Z,46.87
2023-05-12T05:35:16.150Z,47.17
2023-05-12T05:37:43.159Z,46.98
2023-05-12T05:40:10.147Z,47.26
2023-05-12T05:43:27.709Z,46.79
2023-05-12T05:45:56.107Z,46.74
2023-05-12T05:48:22.952Z,46.64
2023-05-12T05:50:51.732Z,46.44
2023-05-12T05:53:19.703Z,46.75
2023-05-12T05:55:48.765Z,46.21
2023-05-12T05:58:15.875Z,45.87
2023-05-12T06:00:43.753Z,46.94
2023-05-12T06:03:10.594Z,47.40
2023-05-12T06:05:38.083Z,46.75
2023-05-12T06:08:05.504Z,46.91
2023-05-12T06:10:32.323Z,47.04
2023-05-12T06:12:58.916Z,47.00
2023-05-12T06:15:25.622Z,46.80
2023-05-12T06:17:56.072Z,47.23
2023-05-12T06:20:23.603Z,46.41
2023-05-12T06:22:50.464Z,46.83
2023-05-12T06:25:22.797Z,46.47
2023-05-12T06:28:15.456Z,46.25
2023-05-12T06:30:42.280Z,45.10
2023-05-12T06:33:09.170Z,46.02
2023-05-12T06:35:35.919Z,46.07
2023-05-12T06:38:02.556Z,46.33
2023-05-12T06:40:29.257Z,46.74
2023-05-12T06:42:56.006Z,46.35
2023-05-12T06:45:23.783Z,46.14
2023-05-12T06:47:50.891Z,45.70
2023-05-12T06:50:24.199Z,45.34
2023-05-12T06:52:51.487Z,46.12
2023-05-12T06:55:20.769Z,46.13
2023-05-12T06:57:48.254Z,45.96
2023-05-12T07:00:15.264Z,46.27
2023-05-12T07:02:42.189Z,46.04
2023-05-12T07:05:09.029Z,45.89
2023-05-12T07:07:36.300Z,46.35
2023-05-12T07:10:02.963Z,45.90
2023-05-12T07:12:29.866Z,45.61
2023-05-12T07:14:56.508Z,45.80
2023-05-12T07:17:23.426Z,46.07
2023-05-12T07:19:50.133Z,45.88
2023-05-12T07:22:17.067Z,45.07
2023-05-12T07:24:44.570Z,44.70
2023-05-12T07:27:12.264Z,44.16
2023-05-12T07:29:38.899Z,44.95
2023-05-12T07:32:06.283Z,44.49
2023-05-12T07:34:34.180Z,45.14
2023-05-12T07:37:04.221Z,44.74
2023-05-12T07:39:32.564Z,44.89
2023-05-12T07:41:59.528Z,45.16
2023-05-12T07:44:27.612Z,45.66
2023-05-12T07:46:54.695Z,45.16
2023-05-12T07:49:23.482Z,45.40
2023-05-12T07:51:50.303Z,45.13
2023-05-12T07:54:16.983Z,45.21
2023-05-12T07:56:43.666Z,45.62
2023-05-12T07:59:11.031Z,45.51
2023-05-12T08:01:37.834Z,45.14
2023-05-12T08:04:04.909Z,44.75
2023-05-12T08:06:31.829Z,45.11
2023-05-12T08:08:59.096Z,44.80
2023-05-12T08:11:26.683Z,45.50
2023-05-12T08:13:53.800Z,46.25
2023-05-12T08:16:20.817Z,46.31
2023-05-12T08:18:47.633Z,46.79
2023-05-12T08:21:14.404Z,47.35
2023-05-12T08:23:41.096Z,46.95
2023-05-12T08:26:07.829Z,46.75
2023-05-12T08:28:34.451Z,46.84
2023-05-12T08:31:04.811Z,46.00
2023-05-12T08:33:31.885Z,46.18
2023-05-12T08:35:58.753Z,46.75
2023-05-12T08:38:25.508Z,47.11
2023-05-12T08:41:10.886Z,47.39
2023-05-12T08:43:52.184Z,47.33
2023-05-12T08:46:20.322Z,47.76
2023-05-12T08:48:48.263Z,47.69
2023-05-12T08:51:15.042Z,47.69
2023-05-12T08:53:42.586Z,47.68
2023-05-12T08:58:42.710Z,47.08
2023-05-12T09:01:12.076Z,47.64
2023-05-12T09:03:39.312Z,47.71
2023-05-12T09:06:06.952Z,47.24
2023-05-12T09:08:35.226Z,47.22
2023-05-12T09:11:04.286Z,47.67
2023-05-12T09:13:34.739Z,47.47
2023-05-12T09:16:02.957Z,47.67
2023-05-12T09:18:44.422Z,47.07
2023-05-12T09:21:12.277Z,47.78
2023-05-12T09:23:38.969Z,48.40
2023-05-12T09:26:05.747Z,48.68
2023-05-12T09:28:38.922Z,47.57
2023-05-12T09:31:19.200Z,47.79
2023-05-12T09:33:46.721Z,47.76
2023-05-12T09:36:21.538Z,47.77
2023-05-12T09:39:04.886Z,47.96
2023-05-12T09:41:35.082Z,47.76
2023-05-12T09:44:02.195Z,48.26
2023-05-12T09:46:32.220Z,48.00
2023-05-12T09:48:59.510Z,47.64
2023-05-12T09:51:27.074Z,47.42
2023-05-12T09:53:53.967Z,47.92
2023-05-12T09:56:21.441Z,47.62
2023-05-12T09:58:49.739Z,47.31
2023-05-12T10:01:23.732Z,47.37
2023-05-12T10:03:56.818Z,47.25
2023-05-12T10:06:37.580Z,47.16
2023-05-12T10:09:19.829Z,46.15
2023-05-12T10:11:47.919Z,45.69
2023-05-12T10:14:15.280Z,44.90
2023-05-12T10:16:42.029Z,45.15
2023-05-12T10:19:09.958Z,45.55
2023-05-12T10:21:38.330Z,43.89
2023-05-12T10:24:05.410Z,44.15
2023-05-12T10:26:37.711Z,44.56
2023-05-12T10:29:04.529Z,43.88
2023-05-12T10:31:31.635Z,43.01
2023-05-12T10:33:59.311Z,42.39
2023-05-12T10:36:26.393Z,42.02
2023-05-12T10:38:53.283Z,42.89
2023-05-12T10:41:31.131Z,41.95
2023-05-12T10:43:58.122Z,42.25
2023-05-12T10:46:26.794Z,41.33
2023-05-12T10:49:04.529Z,40.85
2023-05-12T10:51:33.853Z,40.35
2023-05-12T10:54:06.017Z,40.60
2023-05-12T10:56:38.799Z,40.94
2023-05-12T10:59:07.032Z,40.78
2023-05-12T11:01:34.699Z,39.74
2023-05-12T11:04:16.943Z,39.00
2023-05-12T11:06:45.220Z,38.92
2023-05-12T11:09:13.521Z,38.56
2023-05-12T11:11:40.847Z,38.96
2023-05-12T11:14:08.557Z,39.22
2023-05-12T11:16:42.184Z,38.87
2023-05-12T11:19:08.913Z,38.02
2023-05-12T11:21:35.993Z,37.58
2023-05-12T11:24:03.620Z,38.63
2023-05-12T11:26:30.511Z,38.96
2023-05-12T11:28:58.118Z,38.69
2023-05-12T11:31:25.193Z,37.64
2023-05-12T11:34:12.003Z,36.88
2023-05-12T11:36:42.472Z,36.08
2023-05-12T11:39:24.851Z,36.29
2023-05-12T11:41:59.306Z,35.95
2023-05-12T11:44:32.755Z,36.00
2023-05-12T11:47:01.828Z,36.19
2023-05-12T11:49:30.668Z,35.49
2023-05-12T11:52:02.597Z,36.03
2023-05-12T11:54:30.474Z,36.66
2023-05-12T11:56:59.116Z,36.81
2023-05-12T11:59:33.812Z,36.06
2023-05-12T12:02:02.517Z,36.85
2023-05-12T12:04:33.576Z,36.88
2023-05-12T12:07:01.375Z,37.17
2023-05-12T12:09:41.429Z,36.61
2023-05-12T12:12:09.036Z,36.67
2023-05-12T12:14:38.205Z,36.30
2023-05-12T12:17:05.962Z,36.73
2023-05-12T12:19:32.755Z,37.50
2023-05-12T12:21:59.473Z,38.13
2023-05-12T12:24:26.505Z,38.28
2023-05-12T12:26:53.309Z,37.32
2023-05-12T12:29:20.099Z,37.41
2023-05-12T12:31:47.051Z,37.65
2023-05-12T12:34:14.284Z,37.97
2023-05-12T12:36:41.444Z,37.60
2023-05-12T12:39:08.227Z,38.23
2023-05-12T12:41:35.008Z,38.58
2023-05-12T12:44:01.635Z,38.84
2023-05-12T12:46:28.441Z,39.18
2023-05-12T12:48:55.126Z,39.31
2023-05-12T12:51:21.888Z,39.23
2023-05-12T12:53:48.595Z,39.72
2023-05-12T12:56:15.563Z,39.31
2023-05-12T12:58:42.240Z,39.01
2023-05-12T13:01:09.141Z,39.28
2023-05-12T13:03:35.896Z,39.41
2023-05-12T13:06:02.607Z,39.86
2023-05-12T13:08:29.850Z,40.35
2023-05-12T13:10:56.596Z,40.67
2023-05-12T13:13:24.693Z,40.94
2023-05-12T13:15:53.469Z,40.69
2023-05-12T13:18:20.882Z,40.70
2023-05-12T13:20:47.687Z,40.57
2023-05-12T13:23:14.787Z,40.51
2023-05-12T13:25:41.437Z,40.61
2023-05-12T13:28:08.505Z,40.36
2023-05-12T13:30:35.637Z,39.89
2023-05-12T13:33:05.121Z,39.81
2023-05-12T13:35:32.672Z,39.71
2023-05-12T13:38:00.470Z,38.83
2023-05-12T13:40:27.647Z,38.55
2023-05-12T13:42:54.606Z,38.04
2023-05-12T13:45:21.476Z,38.17
2023-05-12T13:47:48.827Z,38.06
2023-05-12T13:50:15.689Z,37.68
2023-05-12T13:52:42.462Z,36.78
2023-05-12T13:55:09.964Z,36.36
2023-05-12T13:57:36.585Z,36.88
2023-05-12T14:00:03.670Z,36.43
2023-05-12T14:02:30.429Z,36.50
2023-05-12T14:04:57.148Z,36.52
2023-05-12T14:07:24.021Z,36.58
2023-05-12T14:09:50.664Z,36.37
2023-05-12T14:12:17.330Z,36.40
2023-05-12T14:14:49.696Z,36.52
2023-05-12T14:17:17.353Z,36.15
2023-05-12T14:19:44.260Z,36.38
2023-05-12T14:22:22.312Z,36.15
2023-05-12T14:24:51.882Z,36.36
2023-05-12T14:27:18.879Z,36.01
2023-05-12T14:29:45.504Z,36.04
2023-05-12T14:32:12.965Z,36.15
2023-05-12T14:34:39.668Z,35.67
2023-05-12T14:37:06.792Z,35.86
2023-05-12T14:39:33.478Z,36.04
2023-05-12T14:42:00.245Z,35.96
2023-05-12T14:44:27.041Z,35.84
2023-05-12T14:46:53.802Z,35.47
2023-05-12T14:49:21.830Z,35.42
2023-05-12T14:51:48.968Z,35.16
2023-05-12T14:54:25.144Z,35.56
2023-05-12T14:56:52.876Z,35.34
2023-05-12T14:59:19.776Z,35.48
2023-05-12T15:01:46.701Z,35.40
2023-05-12T15:04:13.554Z,35.64
2023-05-12T15:06:40.298Z,35.89
2023-05-12T15:09:07.391Z,35.46
2023-05-12T15:11:34.186Z,35.43
2023-05-12T15:14:00.806Z,35.49
2023-05-12T15:16:28.312Z,35.80
2023-05-12T15:18:55.455Z,36.01
2023-05-12T15:21:22.507Z,36.30
2023-05-12T15:23:49.496Z,36.28
2023-05-12T15:26:31.838Z,36.07
2023-05-12T15:29:00.258Z,35.83
2023-05-12T15:31:31.639Z,36.02
2023-05-12T15:33:59.567Z,35.85
2023-05-12T15:36:26.209Z,36.04
2023-05-12T15:38:52.976Z,36.08
2023-05-12T15:41:23.894Z,36.51
2023-05-12T15:43:50.582Z,36.77
2023-05-12T15:46:17.321Z,36.79
2023-05-12T15:48:44.207Z,36.67
2023-05-12T15:51:10.927Z,36.64
2023-05-12T15:53:37.656Z,36.92
2023-05-12T15:56:05.368Z,36.94
2023-05-12T15:58:32.350Z,36.71
2023-05-12T16:00:59.222Z,37.00
2023-05-12T16:03:26.325Z,36.98
2023-05-12T16:05:53.166Z,37.17
2023-05-12T16:08:20.573Z,37.38
2023-05-12T16:10:47.276Z,37.33
2023-05-12T16:13:14.750Z,37.26
2023-05-12T16:15:41.384Z,37.26
2023-05-12T16:18:11.091Z,37.43
2023-05-12T16:20:39.140Z,37.30
2023-05-12T16:23:05.914Z,37.11
2023-05-12T16:25:32.567Z,37.45
2023-05-12T16:27:59.252Z,37.54
2023-05-12T16:30:26.587Z,37.83
2023-05-12T16:32:53.498Z,38.04
2023-05-12T16:35:21.454Z,37.85
2023-05-12T16:37:48.326Z,37.92
2023-05-12T16:40:15.620Z,37.65
2023-05-12T16:42:42.868Z,37.86
2023-05-12T16:45:11.141Z,38.04
2023-05-12T16:47:38.030Z,38.17
2023-05-12T16:50:05.627Z,38.36
2023-05-12T16:52:32.277Z,38.53
2023-05-12T16:54:59.011Z,38.57
2023-05-12T16:57:25.987Z,38.70
2023-05-12T16:59:52.683Z,38.76
2023-05-12T17:02:19.442Z,39.27
2023-05-12T17:04:46.797Z,39.43
2023-05-12T17:07:13.484Z,39.49
2023-05-12T17:09:43.425Z,39.66
2023-05-12T17:12:11.074Z,40.02
2023-05-12T17:14:38.100Z,40.26
2023-05-12T17:17:05.261Z,40.10
2023-05-12T17:19:35.778Z,40.31
2023-05-12T17:22:02.561Z,40.64
2023-05-12T17:24:30.504Z,40.72
2023-05-12T17:26:57.884Z,40.58
2023-05-12T17:29:24.623Z,40.83
2023-05-12T17:31:51.490Z,40.93
2023-05-12T17:34:18.321Z,41.16
2023-05-12T17:36:45.111Z,41.22
2023-05-12T17:39:14.969Z,41.47
2023-05-12T17:41:42.731Z,41.66
2023-05-12T17:44:10.298Z,41.79
2023-05-12T17:46:37.088Z,42.00
2023-05-12T17:49:03.722Z,42.64
2023-05-12T17:51:30.710Z,42.42
2023-05-12T17:53:57.324Z,42.80
2023-05-12T17:56:24.037Z,42.69
2023-05-12T17:58:50.704Z,42.97
2023-05-12T18:01:17.556Z,42.97
2023-05-12T18:03:44.355Z,43.04
2023-05-12T18:06:12.946Z,43.04
2023-05-12T18:08:40.387Z,42.83
2023-05-12T18:11:07.767Z,42.79
2023-05-12T18:13:35.445Z,42.97
2023-05-12T18:16:02.902Z,43.26
2023-05-12T18:18:29.943Z,43.35
2023-05-12T18:20:56.893Z,43.39
2023-05-12T18:23:23.587Z,43.68
2023-05-12T18:25:51.267Z,43.82
2023-05-12T18:28:17.944Z,43.99
2023-05-12T18:30:44.785Z,44.37
2023-05-12T18:33:11.623Z,44.56
2023-05-12T18:35:38.455Z,44.82
2023-05-12T18:38:05.250Z,44.78
2023-05-12T18:40:31.903Z,45.07
2023-05-12T18:42:58.754Z,45.42
2023-05-12T18:45:25.412Z,45.50
2023-05-12T18:47:52.170Z,45.65
2023-05-12T18:50:19.512Z,45.89
2023-05-12T18:52:47.228Z,46.09
2023-05-12T18:55:13.923Z,46.08
2023-05-12T18:57:40.703Z,46.10
2023-05-12T19:00:10.083Z,46.40
2023-05-12T19:02:36.943Z,46.64
2023-05-12T19:05:05.071Z,46.87
2023-05-12T19:07:31.773Z,46.86
2023-05-12T19:09:59.487Z,47.34
2023-05-12T19:12:26.519Z,47.61
2023-05-12T19:14:53.298Z,47.58
2023-05-12T19:17:19.938Z,47.72
2023-05-12T19:19:46.871Z,47.75
2023-05-12T19:22:13.705Z,47.75
2023-05-12T19:24:40.572Z,47.73
2023-05-12T19:27:07.256Z,47.67
2023-05-12T19:29:33.891Z,47.95
2023-05-12T19:32:00.685Z,48.22
2023-05-12T19:34:29.702Z,48.30
2023-05-12T19:36:58.361Z,48.40
2023-05-12T19:39:25.121Z,48.50
2023-05-12T19:41:51.889Z,48.73
2023-05-12T19:44:18.734Z,48.93
2023-05-12T19:46:48.850Z,49.31
2023-05-12T19:49:15.839Z,49.24
2023-05-12T19:51:43.669Z,49.60
2023-05-12T19:54:10.637Z,49.64
2023-05-12T19:56:37.643Z,49.74
2023-05-12T19:59:04.354Z,49.89
2023-05-12T20:01:31.134Z,50.02
2023-05-12T20:03:59.036Z,49.98
2023-05-12T20:06:25.748Z,50.20
2023-05-12T20:08:52.747Z,50.32
2023-05-12T20:11:19.522Z,50.24
2023-05-12T20:13:46.277Z,50.37
2023-05-12T20:16:13.134Z,50.34
2023-05-12T20:18:40.463Z,50.30
2023-05-12T20:21:07.177Z,50.38
2023-05-12T20:23:33.893Z,50.54
2023-05-12T20:26:00.938Z,50.44
2023-05-12T20:28:28.441Z,50.68
2023-05-12T20:30:55.253Z,50.67
2023-05-12T20:33:21.973Z,50.84
2023-05-12T20:35:48.766Z,50.61
2023-05-12T20:38:15.462Z,50.87
2023-05-12T20:40:42.234Z,50.78
2023-05-12T20:43:08.932Z,50.69
2023-05-12T20:45:36.580Z,50.72
2023-05-12T20:48:03.419Z,50.98
2023-05-12T20:50:30.918Z,50.99
2023-05-12T20:52:57.674Z,50.95
2023-05-12T20:55:25.797Z,50.74
2023-05-12T20:57:52.534Z,50.78
2023-05-12T21:00:19.527Z,51.00
2023-05-12T21:02:47.322Z,50.91
2023-05-12T21:05:14.197Z,50.99
2023-05-12T21:07:41.028Z,51.02
2023-05-12T21:10:08.212Z,50.94
2023-05-12T21:12:34.940Z,51.01
2023-05-12T21:15:02.016Z,51.19
2023-05-12T21:17:28.659Z,51.15
2023-05-12T21:19:55.458Z,51.14
2023-05-12T21:22:22.178Z,51.15
2023-05-12T21:24:51.068Z,51.19
2023-05-12T21:27:18.434Z,50.91
2023-05-12T21:29:45.043Z,51.13
2023-05-12T21:32:11.883Z,51.22
2023-05-12T21:34:38.627Z,51.36
2023-05-12T21:37:05.531Z,51.34
2023-05-12T21:39:32.173Z,51.23
2023-05-12T21:41:59.107Z,51.27
2023-05-12T21:44:25.721Z,51.51
2023-05-12T21:46:52.428Z,51.46
2023-05-12T21:49:19.345Z,51.54
2023-05-12T21:51:47.041Z,51.69
2023-05-12T21:54:13.812Z,51.87
2023-05-12T21:56:40.790Z,52.20
2023-05-12T21:59:07.496Z,52.21
2023-05-12T22:01:34.191Z,52.44
2023-05-12T22:04:00.896Z,52.63
2023-05-12T22:06:27.642Z,52.93
2023-05-12T22:08:54.376Z,52.89
2023-05-12T22:11:21.876Z,53.33
2023-05-12T22:13:48.571Z,53.42
2023-05-12T22:16:15.562Z,53.60
2023-05-12T22:18:45.520Z,53.60
2023-05-12T22:21:12.905Z,53.67
2023-05-12T22:23:40.124Z,54.03
2023-05-12T22:26:06.800Z,54.08
2023-05-12T22:28:33.553Z,54.25
2023-05-12T22:31:00.416Z,54.24
2023-05-12T22:33:27.355Z,54.46
2023-05-12T22:35:54.008Z,54.56
2023-05-12T22:38:20.636Z,54.71
2023-05-12T22:40:50.535Z,54.84
2023-05-12T22:43:17.876Z,54.89
2023-05-12T22:45:44.572Z,54.87
2023-05-12T22:48:11.311Z,55.29
2023-05-12T22:50:37.994Z,55.12
2023-05-12T22:53:04.658Z,55.48
2023-05-12T22:55:31.460Z,55.27
2023-05-12T22:58:00.044Z,55.58
2023-05-12T23:00:27.142Z,55.63
2023-05-12T23:02:54.150Z,55.79
2023-05-12T23:05:21.169Z,55.92
2023-05-12T23:07:48.031Z,56.02
2023-05-12T23:10:14.645Z,56.17
2023-05-12T23:12:41.465Z,56.30
2023-05-12T23:15:08.755Z,56.74
2023-05-12T23:17:35.672Z,56.98
2023-05-12T23:20:02.389Z,57.00
2023-05-12T23:22:29.100Z,56.67
2023-05-12T23:24:58.426Z,56.79
2023-05-12T23:27:26.403Z,56.84
2023-05-12T23:29:53.556Z,56.83
2023-05-12T23:32:20.397Z,56.56
2023-05-12T23:34:47.189Z,56.74
2023-05-12T23:37:14.110Z,56.89
2023-05-12T23:39:40.797Z,57.13
2023-05-12T23:42:07.480Z,57.42
2023-05-12T23:44:34.149Z,57.45
2023-05-12T23:47:01.132Z,57.43
2023-05-12T23:49:27.933Z,57.55
2023-05-12T23:51:54.949Z,57.70
2023-05-12T23:54:21.704Z,57.79
2023-05-12T23:56:48.347Z,58.13
2023-05-12T23:59:15.207Z,58.10
